createdAt,value
2023-01-04T00:03:14.029Z,67.67
2023-01-04T00:08:07.055Z,67.77
2023-01-04T00:12:59.250Z,67.63
2023-01-04T00:17:50.787Z,67.46
2023-01-04T00:22:42.354Z,67.32
2023-01-04T00:27:34.233Z,67.24
2023-01-04T00:32:25.826Z,66.93
2023-01-04T00:37:17.387Z,67.18
2023-01-04T00:42:08.912Z,67.59
2023-01-04T00:47:03.043Z,67.58
2023-01-04T00:51:55.379Z,67.74
2023-01-04T00:56:47.467Z,67.78
2023-01-04T01:01:40.446Z,67.83
2023-01-04T01:06:34.264Z,68.16
2023-01-04T01:11:26.878Z,70.08
2023-01-04T01:16:37.892Z,71.69
2023-01-04T01:21:32.833Z,73.30
2023-01-04T01:26:25.530Z,74.58
2023-01-04T01:31:20.444Z,74.67
2023-01-04T01:36:13.676Z,75.88
2023-01-04T01:41:07.351Z,76.16
2023-01-04T01:45:59.123Z,76.41
2023-01-04T01:50:57.680Z,77.28
2023-01-04T01:55:51.312Z,78.80
2023-01-04T02:00:43.237Z,79.08
2023-01-04T02:05:36.374Z,78.92
2023-01-04T02:10:28.257Z,77.79
2023-01-04T02:15:26.603Z,75.03
2023-01-04T02:20:50.348Z,72.28
2023-01-04T02:26:21.311Z,70.93
2023-01-04T02:31:49.771Z,71.87
2023-01-04T02:36:47.443Z,73.52
2023-01-04T02:41:50.297Z,74.69
2023-01-04T02:46:49.186Z,73.76
2023-01-04T02:51:41.539Z,73.12
2023-01-04T02:56:45.183Z,71.37
2023-01-04T03:02:05.588Z,72.29
2023-01-04T03:07:18.770Z,71.86
2023-01-04T03:12:31.611Z,71.76
2023-01-04T03:17:25.723Z,71.49
2023-01-04T03:22:41.923Z,71.76
2023-01-04T03:27:53.043Z,71.66
2023-01-04T03:33:12.795Z,73.42
2023-01-04T03:38:39.212Z,72.05
2023-01-04T03:44:00.688Z,71.96
2023-01-04T03:48:55.413Z,71.16
2023-01-04T03:54:23.252Z,71.36
2023-01-04T03:59:14.841Z,71.19
2023-01-04T04:04:25.259Z,72.42
2023-01-04T04:09:16.892Z,72.14
2023-01-04T04:14:09.212Z,72.91
2023-01-04T04:19:06.404Z,74.07
2023-01-04T04:24:02.133Z,75.86
2023-01-04T04:28:53.708Z,76.18
2023-01-04T04:33:47.299Z,76.03
2023-01-04T04:38:38.878Z,76.61
2023-01-04T04:43:30.468Z,75.96
2023-01-04T04:48:22.103Z,75.10
2023-01-04T04:53:13.651Z,75.06
2023-01-04T04:58:05.189Z,74.71
2023-01-04T05:03:00.489Z,74.82
2023-01-04T05:07:52.587Z,74.13
2023-01-04T05:13:02.381Z,74.13
2023-01-04T05:17:55.473Z,73.73
2023-01-04T05:22:46.992Z,73.51
2023-01-04T05:27:38.620Z,73.25
2023-01-04T05:32:30.233Z,73.00
2023-01-04T05:37:21.798Z,72.63
2023-01-04T05:42:25.385Z,72.20
2023-01-04T05:47:16.973Z,72.34
2023-01-04T05:52:08.611Z,72.21
2023-01-04T05:57:00.304Z,72.50
2023-01-04T06:01:53.343Z,72.47
2023-01-04T06:06:45.016Z,72.60
2023-01-04T06:11:36.636Z,73.04
2023-01-04T06:16:28.321Z,72.47
2023-01-04T06:21:20.168Z,72.96
2023-01-04T06:26:11.925Z,72.85
2023-01-04T06:31:08.127Z,72.42
2023-01-04T06:36:00.777Z,72.64
2023-01-04T06:40:52.744Z,72.32
2023-01-04T06:45:44.350Z,72.83
2023-01-04T06:50:36.462Z,72.71
2023-01-04T06:55:29.776Z,72.35
2023-01-04T07:00:21.773Z,72.48
2023-01-04T07:05:14.284Z,72.63
2023-01-04T07:10:09.732Z,72.45
2023-01-04T07:15:02.256Z,72.56
2023-01-04T07:20:13.875Z,72.46
2023-01-04T07:25:05.914Z,72.93
2023-01-04T07:29:57.738Z,72.68
2023-01-04T07:34:49.268Z,72.13
2023-01-04T07:39:40.852Z,72.16
2023-01-04T07:44:32.532Z,71.97
2023-01-04T07:49:24.125Z,71.66
2023-01-04T07:54:19.765Z,71.56
2023-01-04T07:59:13.028Z,71.54
2023-01-04T08:04:06.140Z,71.51
2023-01-04T08:09:02.148Z,71.84
2023-01-04T08:13:53.740Z,71.33
2023-01-04T08:18:45.309Z,71.68
2023-01-04T08:23:37.751Z,71.70
2023-01-04T08:28:29.490Z,71.86
2023-01-04T08:33:21.728Z,71.38
2023-01-04T08:38:57.570Z,71.09
2023-01-04T08:43:26.037Z,70.83
2023-01-04T08:48:24.172Z,71.04
2023-01-04T08:53:16.170Z,71.14
2023-01-04T08:58:07.677Z,70.18
2023-01-04T09:02:59.434Z,70.37
2023-01-04T09:07:51.313Z,70.62
2023-01-04T09:12:43.099Z,70.70
2023-01-04T09:17:34.666Z,69.81
2023-01-04T09:22:26.431Z,70.35
2023-01-04T09:27:17.976Z,70.58
2023-01-04T09:32:16.121Z,70.00
2023-01-04T09:37:08.473Z,69.40
2023-01-04T09:42:05.036Z,69.15
2023-01-04T09:47:03.999Z,69.33
2023-01-04T09:52:27.727Z,69.46
2023-01-04T09:57:27.136Z,68.84
2023-01-04T10:02:31.946Z,68.65
2023-01-04T10:07:29.606Z,68.97
2023-01-04T10:12:34.514Z,69.15
2023-01-04T10:18:13.744Z,69.29
2023-01-04T10:22:59.021Z,69.28
2023-01-04T10:28:27.797Z,68.73
2023-01-04T10:33:33.489Z,70.82
2023-01-04T10:38:35.634Z,73.33
2023-01-04T10:44:12.122Z,74.84
2023-01-04T10:49:06.852Z,75.08
2023-01-04T10:54:27.083Z,75.22
2023-01-04T10:59:27.474Z,75.35
2023-01-04T11:04:38.506Z,75.15
2023-01-04T11:09:47.851Z,76.09
2023-01-04T11:14:39.398Z,76.56
2023-01-04T11:19:32.758Z,76.44
2023-01-04T11:24:32.459Z,76.37
2023-01-04T11:29:35.136Z,75.95
2023-01-04T11:34:48.610Z,75.70
2023-01-04T11:39:40.220Z,75.25
2023-01-04T11:44:35.052Z,74.87
2023-01-04T11:49:34.873Z,73.78
2023-01-04T11:54:26.788Z,73.51
2023-01-04T11:59:25.300Z,73.33
2023-01-04T12:04:27.659Z,73.27
2023-01-04T12:09:21.844Z,72.63
2023-01-04T12:14:26.331Z,72.47
2023-01-04T12:19:19.755Z,72.62
2023-01-04T12:24:18.295Z,71.72
2023-01-04T12:29:25.017Z,71.72
2023-01-04T12:34:22.475Z,71.54
2023-01-04T12:39:14.281Z,71.88
2023-01-04T12:44:37.966Z,71.73
2023-01-04T12:49:29.950Z,71.68
2023-01-04T12:54:32.124Z,71.43
2023-01-04T12:59:34.391Z,71.49
2023-01-04T13:04:41.033Z,71.09
2023-01-04T13:09:33.184Z,70.50
2023-01-04T13:14:33.996Z,70.41
2023-01-04T13:19:26.475Z,71.71
2023-01-04T13:24:32.129Z,71.25
2023-01-04T13:29:30.431Z,70.69
2023-01-04T13:34:34.171Z,71.86
2023-01-04T13:39:25.764Z,71.31
2023-01-04T13:44:44.215Z,72.98
2023-01-04T13:49:41.256Z,72.01
2023-01-04T13:54:35.446Z,71.45
2023-01-04T13:59:27.476Z,71.28
2023-01-04T14:04:30.742Z,71.33
2023-01-04T14:09:28.977Z,71.32
2023-01-04T14:14:28.655Z,71.15
2023-01-04T14:19:28.055Z,70.82
2023-01-04T14:29:44.356Z,70.96
2023-01-04T14:34:36.079Z,70.64
2023-01-04T14:39:32.993Z,70.38
2023-01-04T14:44:28.293Z,70.37
2023-01-04T14:49:22.412Z,70.11
2023-01-04T14:54:23.948Z,70.09
2023-01-04T14:59:16.937Z,70.07
2023-01-04T15:04:08.588Z,70.17
2023-01-04T15:09:00.334Z,70.30
2023-01-04T15:13:52.820Z,71.44
2023-01-04T15:18:45.783Z,72.05
2023-01-04T15:23:37.481Z,72.84
2023-01-04T15:28:29.200Z,73.41
2023-01-04T15:33:20.750Z,74.30
2023-01-04T15:38:18.221Z,75.60
2023-01-04T15:43:10.582Z,77.42
2023-01-04T15:48:04.331Z,81.54
2023-01-04T15:52:57.064Z,84.15
2023-01-04T15:57:50.096Z,83.71
2023-01-04T16:02:41.995Z,84.78
2023-01-04T16:07:36.678Z,85.35
2023-01-04T16:12:44.477Z,84.65
2023-01-04T16:17:36.423Z,84.83
2023-01-04T16:22:29.030Z,82.82
2023-01-04T16:27:21.339Z,82.51
2023-01-04T16:32:12.885Z,81.77
2023-01-04T16:37:04.463Z,80.90
2023-01-04T16:58:32.991Z,82.37
2023-01-04T17:03:26.856Z,82.95
2023-01-04T17:08:23.558Z,82.15
2023-01-04T17:13:18.367Z,80.26
2023-01-04T17:18:12.320Z,79.02
2023-01-04T17:23:03.903Z,76.78
2023-01-04T17:27:55.455Z,75.63
2023-01-04T17:32:47.002Z,75.48
2023-01-04T17:37:38.541Z,74.69
2023-01-04T17:42:32.910Z,74.91
2023-01-04T17:47:24.473Z,74.47
2023-01-04T17:52:22.194Z,74.26
2023-01-04T17:57:17.589Z,75.07
2023-01-04T18:02:09.564Z,74.71
2023-01-04T18:07:01.541Z,73.19
2023-01-04T18:11:53.163Z,73.20
2023-01-04T18:16:57.689Z,72.30
2023-01-04T18:21:49.647Z,72.49
2023-01-04T18:27:10.908Z,72.12
2023-01-04T18:31:52.883Z,72.02
2023-01-04T18:36:45.390Z,72.48
2023-01-04T18:41:37.297Z,71.66
2023-01-04T18:46:29.066Z,71.08
2023-01-04T18:51:22.415Z,70.76
2023-01-04T18:56:14.286Z,70.37
2023-01-04T19:01:08.739Z,70.12
2023-01-04T19:06:00.380Z,69.72
2023-01-04T19:10:52.165Z,69.21
2023-01-04T19:15:47.718Z,69.28
2023-01-04T19:20:40.080Z,69.95
2023-01-04T19:25:31.888Z,70.23
2023-01-04T19:30:23.556Z,69.25
2023-01-04T19:35:15.183Z,69.88
2023-01-04T19:40:07.223Z,69.29
2023-01-04T19:44:58.736Z,68.77
2023-01-04T19:49:50.519Z,68.92
2023-01-04T19:54:42.195Z,69.38
2023-01-04T19:59:33.767Z,68.65
2023-01-04T20:04:27.694Z,68.41
2023-01-04T20:09:24.716Z,68.17
2023-01-04T20:14:16.336Z,67.58
2023-01-04T20:19:07.958Z,67.74
2023-01-04T20:24:00.616Z,67.27
2023-01-04T20:28:52.204Z,67.35
2023-01-04T20:33:44.145Z,68.64
2023-01-04T20:38:40.682Z,68.62
2023-01-04T20:43:36.139Z,69.04
2023-01-04T20:48:28.689Z,70.29
2023-01-04T20:53:20.327Z,70.44
2023-01-04T20:58:14.582Z,70.09
2023-01-04T21:03:08.460Z,70.09
2023-01-04T21:08:00.290Z,70.25
2023-01-04T21:12:51.834Z,69.37
2023-01-04T21:17:43.571Z,69.74
2023-01-04T21:22:35.148Z,69.18
2023-01-04T21:27:27.026Z,69.32
2023-01-04T21:32:18.661Z,69.74
2023-01-04T21:37:10.236Z,69.32
2023-01-04T21:42:01.853Z,68.67
2023-01-04T21:46:53.555Z,68.90
2023-01-04T21:51:45.178Z,68.80
2023-01-04T21:56:36.864Z,69.46
2023-01-04T22:01:34.529Z,69.08
2023-01-04T22:06:27.196Z,69.67
2023-01-04T22:11:18.770Z,70.05
2023-01-04T22:16:14.641Z,69.40
2023-01-04T22:21:17.992Z,69.56
2023-01-04T22:26:11.137Z,70.01
2023-01-04T22:31:10.935Z,69.61
2023-01-04T22:36:17.164Z,70.28
2023-01-04T22:41:15.188Z,70.06
2023-01-04T22:46:08.649Z,70.20
2023-01-04T22:51:04.177Z,71.03
2023-01-04T23:01:08.394Z,70.61
2023-01-04T23:06:00.176Z,70.98
2023-01-04T23:10:51.953Z,70.97
2023-01-04T23:15:43.479Z,71.45
2023-01-04T23:20:36.359Z,71.02
2023-01-04T23:25:27.963Z,70.83
2023-01-04T23:30:19.559Z,70.56
2023-01-04T23:35:11.129Z,70.47
2023-01-04T23:40:04.802Z,70.62
2023-01-04T23:44:56.348Z,70.58
2023-01-04T23:49:47.903Z,70.53
2023-01-04T23:54:40.589Z,70.51
2023-01-04T23:59:32.670Z,70.93
